Data for 03/02/2006

Time Sea-Level Adjusted Pressure Absolute Pressure Temperature Relative Humidity Dew Point   
(mb) (inHg) (mb) (inHg) (C) (F) (%) (C) (F)
00:05 1019 30.09 848 25.04 -1.4 29.6 50 -10.6 12.9
00:10 1019 30.09 848 25.04 -1.4 29.4 50 -10.6 12.9
00:15 1019 30.09 848 25.04 -1.7 29 51 -10.4 13.2
00:20 1019 30.09 848 25.04 -2.1 28.2 54 -10.2 13.6
00:25 1019 30.09 848 25.04 -2.3 27.9 57 -9.7 14.6
00:30 1019 30.09 848 25.04 -2.4 27.7 58 -9.6 14.7
00:35 1019 30.09 848 25.04 -2.6 27.3 58 -9.8 14.4
00:40 1019 30.09 848 25.04 -2.5 27.5 58 -9.6 14.7
00:45 1019 30.09 848 25.04 -2.4 27.7 57 -9.8 14.4
00:50 1019 30.09 848 25.04 -2.2 28 57 -9.7 14.6
00:55 1019 30.09 848 25.04 -2.5 27.5 58 -9.7 14.5
01:00 1019 30.09 848 25.04 -2.5 27.5 58 -9.7 14.6
01:05 1019 30.09 848 25.04 -2.6 27.3 58 -9.8 14.3
01:10 1019 30.09 848 25.04 -2.6 27.3 57 -9.9 14.1
01:15 1019 30.09 848 25.04 -2.4 27.7 56 -10 13.9
01:20 1019 30.09 848 25.04 -2.2 28 54 -10.2 13.6
01:25 1019 30.09 848 25.04 -2.1 28.3 52 -10.6 13
01:30 1019 30.09 848 25.04 -2.2 28 53 -10.6 12.9
01:35 1019 30.09 848 25.04 -2.4 27.7 53 -10.6 12.8
01:40 1019 30.09 848 25.04 -2.3 27.9 53 -10.7 12.8
01:45 1019 30.09 848 25.04 -2.2 28 53 -10.6 12.9
01:50 1019 30.09 848 25.04 -2.4 27.7 54 -10.4 13.2
01:55 1019 30.09 848 25.04 -2.6 27.4 53 -10.8 12.6
02:00 1019 30.09 848 25.04 -2.3 27.9 52 -10.8 12.6
02:05 1019 30.09 848 25.04 -2.2 28 53 -10.6 12.9
02:10 1019 30.09 848 25.04 -2.3 27.9 52 -10.8 12.6
02:15 1019 30.09 848 25.04 -2.1 28.2 52 -10.7 12.7
02:20 1019 30.09 848 25.04 -2.2 28 54 -10.4 13.2
02:25 1019 30.09 848 25.04 -2.5 27.5 54 -10.5 13
02:30 1019 30.09 848 25.04 -2.6 27.3 53 -10.9 12.4
02:35 1019 30.09 848 25.04 -2.7 27.2 53 -10.9 12.3
02:40 1019 30.09 848 25.04 -2.3 27.8 52 -10.8 12.6
02:45 1019 30.09 848 25.04 -2.5 27.4 53 -11 12.3
02:50 1018 30.06 848 25.04 -2.5 27.5 54 -10.7 12.8
02:55 1018 30.06 848 25.04 -2.8 27 54 -10.9 12.4
03:00 1018 30.06 848 25.04 -2.4 27.8 52 -11 12.1
03:05 1018 30.06 848 25.04 -2.4 27.6 52 -10.9 12.3
03:10 1018 30.06 848 25.04 -2.4 27.6 52 -11.1 12.1
03:15 1018 30.06 848 25.04 -2.7 27.2 53 -10.9 12.3
03:20 1018 30.06 847 25.01 -3 26.5 54 -11.1 11.9
03:25 1018 30.06 847 25.01 -3 26.6 53 -11.4 11.6
03:30 1018 30.06 847 25.01 -3.1 26.5 54 -11.2 11.9
03:35 1018 30.06 847 25.01 -3.1 26.5 54 -11.1 12
03:40 1018 30.06 847 25.01 -3.1 26.4 55 -11 12.2
03:45 1018 30.06 847 25.01 -3 26.6 54 -11 12.1
03:50 1018 30.06 847 25.01 -3 26.7 54 -11.1 12.1
03:55 1018 30.06 847 25.01 -3 26.5 55 -10.8 12.5
04:00 1018 30.06 847 25.01 -3.2 26.2 55 -10.9 12.4
04:05 1018 30.06 847 25.01 -3.2 26.2 55 -11 12.2
04:10 1018 30.06 847 25.01 -2.9 26.7 55 -10.9 12.5
04:15 1018 30.06 847 25.01 -3.2 26.2 56 -10.8 12.5
04:20 1018 30.06 847 25.01 -3.3 26.1 55 -11 12.2
04:25 1018 30.06 847 25.01 -2.9 26.7 54 -11.1 12
04:30 1018 30.06 847 25.01 -2.3 27.8 53 -10.8 12.6
04:35 1018 30.06 847 25.01 -2.1 28.1 52 -10.7 12.7
04:40 1018 30.06 847 25.01 -2.5 27.4 54 -10.6 13
04:45 1018 30.06 847 25.01 -3.4 25.9 56 -10.9 12.3
04:50 1018 30.06 847 25.01 -3.4 25.8 56 -11 12.2
04:55 1018 30.06 847 25.01 -3.2 26.3 55 -11.1 12.1
05:00 1018 30.06 847 25.01 -3 26.5 54 -11.1 12
05:05 1018 30.06 847 25.01 -2.9 26.8 54 -11 12.3
05:10 1018 30.06 847 25.01 -2.9 26.7 54 -10.9 12.3
05:15 1018 30.06 847 25.01 -2.9 26.7 54 -11.1 12.1
05:20 1018 30.06 847 25.01 -2.7 27.2 52 -11.1 12
05:25 1018 30.06 847 25.01 -2.5 27.6 51 -11.4 11.5
05:30 1018 30.06 847 25.01 -2.4 27.7 51 -11.2 11.8
05:35 1018 30.06 847 25.01 -2.1 28.2 48 -11.6 11.1
05:40 1018 30.06 847 25.01 -2.2 28 49 -11.5 11.4
05:45 1018 30.06 847 25.01 -2.5 27.4 49 -11.7 10.9
05:50 1018 30.06 847 25.01 -2.9 26.8 52 -11.3 11.6
05:55 1018 30.06 847 25.01 -3.3 26 53 -11.5 11.3
06:00 1018 30.06 847 25.01 -3.6 25.5 54 -11.6 11.2
06:05 1018 30.06 847 25.01 -3.7 25.3 55 -11.4 11.5
06:10 1018 30.06 847 25.01 -4 24.9 48 -13.5 7.7
06:15 1018 30.06 847 25.01 -3.9 25 48 -13.4 7.8
06:20 1018 30.06 847 25.01 -4.2 24.5 48 -13.5 7.7
06:25 1018 30.06 847 25.01 -4.5 24 49 -13.6 7.5
06:30 1018 30.06 847 25.01 -4.5 23.8 47 -14.2 6.5
06:35 1018 30.06 847 25.01 -4.2 24.5 47 -13.9 7
06:40 1018 30.06 848 25.04 -3.9 24.9 47 -13.7 7.3
06:45 1018 30.06 848 25.04 -3.9 24.9 51 -12.8 9
06:50 1018 30.06 847 25.01 -3.9 25.1 52 -12.4 9.6
06:55 1018 30.06 847 25.01 -4.2 24.4 52 -12.8 9
07:00 1018 30.06 847 25.01 -4.6 23.7 55 -12.3 9.8
07:05 1018 30.06 847 25.01 -4.4 24.1 54 -12.4 9.7
07:10 1018 30.06 847 25.01 -4.1 24.6 53 -12.4 9.6
07:15 1018 30.06 847 25.01 -3.8 25.1 53 -12.2 10.1
07:20 1018 30.06 847 25.01 -4.2 24.4 55 -12 10.4
07:25 1018 30.06 848 25.04 -4.4 24.1 55 -12.1 10.3
07:30 1018 30.06 848 25.04 -4.3 24.2 55 -12 10.4
07:35 1018 30.06 848 25.04 -4.1 24.6 55 -11.8 10.8
07:40 1019 30.09 848 25.04 -4 24.8 56 -11.6 11
07:45 1019 30.09 848 25.04 -3.8 25.2 56 -11.3 11.7
07:50 1019 30.09 848 25.04 -3.5 25.8 55 -11.2 11.9
07:55 1019 30.09 848 25.04 -3.4 25.8 57 -10.9 12.4
08:00 1019 30.09 848 25.04 -3.4 25.9 56 -10.9 12.4
08:05 1019 30.09 848 25.04 -3.1 26.5 57 -10.3 13.4
08:10 1019 30.09 848 25.04 -2.4 27.8 56 -9.9 14.1
08:15 1019 30.09 848 25.04 -2 28.3 56 -9.8 14.4
08:20 1019 30.09 848 25.04 -1.9 28.6 55 -9.7 14.6
08:25 1019 30.09 848 25.04 -1.8 28.8 55 -9.6 14.8
08:30 1019 30.09 848 25.04 -1.6 29.1 55 -9.5 14.8
08:35 1019 30.09 848 25.04 -1.5 29.3 55 -9.4 15.1
08:40 1019 30.09 848 25.04 -1.4 29.6 55 -9.3 15.2
08:45 1019 30.09 848 25.04 -1.3 29.7 55 -9.2 15.5
08:50 1019 30.09 848 25.04 -1.2 29.8 55 -9.2 15.5
08:55 1019 30.09 848 25.04 -1 30.2 54 -9 15.7
09:00 1019 30.09 848 25.04 -0.6 31 53 -9.1 15.6
09:05 1019 30.09 848 25.04 -0.6 30.9 53 -9 15.7
09:10 1019 30.09 848 25.04 -0.4 31.3 53 -8.8 16.1
09:15 1019 30.09 848 25.04 0.2 32.3 50 -8.9 15.9
09:20 1019 30.09 848 25.04 0.3 32.6 50 -8.9 15.9
09:25 1019 30.09 848 25.04 0.5 33 49 -8.9 16
09:30 1019 30.09 848 25.04 0.8 33.4 48 -8.9 16
09:35 1019 30.09 848 25.04 1.3 34.4 47 -8.9 16
09:40 1019 30.09 848 25.04 1.2 34.1 47 -8.8 16.1
09:45 1019 30.09 848 25.04 1.1 34 47 -8.9 16
09:50 1019 30.09 848 25.04 1.5 34.8 46 -8.9 15.9
09:55 1019 30.09 848 25.04 1.6 34.9 45 -9 15.8
10:00 1019 30.09 848 25.04 1.6 34.9 47 -8.5 16.7
10:05 1019 30.09 848 25.04 1.2 34.1 50 -8.2 17.2
10:10 1019 30.09 848 25.04 1.7 35 45 -9 15.8
10:15 1019 30.09 848 25.04 0.8 33.4 52 -8 17.7
10:20 1019 30.09 848 25.04 1 33.8 48 -8.8 16.2
10:25 1019 30.09 848 25.04 1.2 34.1 48 -8.6 16.5
10:30 1019 30.09 848 25.04 1.5 34.7 48 -8.4 16.8
10:35 1019 30.09 848 25.04 1.5 34.7 46 -9 15.8
10:40 1019 30.09 848 25.04 1.3 34.3 48 -8.7 16.4
10:45 1019 30.09 848 25.04 2.5 36.6 43 -8.8 16.2
10:50 1019 30.09 848 25.04 2.3 36.1 46 -8.1 17.4
10:55 1019 30.09 848 25.04 3.1 37.5 43 -8.3 17.1
11:00 1019 30.09 848 25.04 2.9 37.2 42 -8.7 16.3
11:05 1018 30.06 848 25.04 3.5 38.3 40 -9 15.8
11:10 1018 30.06 848 25.04 3.6 38.5 40 -8.6 16.5
11:15 1018 30.06 848 25.04 2.5 36.6 43 -9 15.9
11:20 1018 30.06 848 25.04 3 37.3 42 -8.8 16.2
11:25 1018 30.06 847 25.01 3.5 38.3 40 -8.9 15.9
11:30 1018 30.06 847 25.01 4.4 39.9 38 -8.7 16.4
11:35 1018 30.06 847 25.01 4.7 40.4 38 -8.3 17
11:40 1018 30.06 847 25.01 4.5 40 39 -8.2 17.3
11:45 1018 30.06 847 25.01 5 41.1 38 -8 17.6
11:50 1018 30.06 847 25.01 5.3 41.5 38 -8 17.5
11:55 1018 30.06 847 25.01 4.9 40.9 40 -7.5 18.5
12:00 1018 30.06 847 25.01 3.7 38.7 42 -8.1 17.3
12:05 1018 30.06 847 25.01 4.2 39.6 41 -7.8 18
12:10 1018 30.06 847 25.01 4.6 40.3 40 -7.9 17.9
12:15 1018 30.06 847 25.01 4.4 39.9 41 -7.8 18
12:20 1018 30.06 847 25.01 4.5 40.2 42 -7.4 18.6
12:25 1018 30.06 847 25.01 4.4 40 41 -7.7 18.1
12:30 1018 30.06 847 25.01 4.6 40.3 40 -7.8 18
12:35 1018 30.06 847 25.01 4.8 40.6 41 -7.3 18.9
12:40 1018 30.06 847 25.01 4.5 40.1 41 -7.7 18.2
12:45 1018 30.06 847 25.01 5.4 41.8 38 -7.8 18
12:50 1017 30.03 847 25.01 6.4 43.4 37 -7.1 19.2
12:55 1017 30.03 847 25.01 5.9 42.6 37 -7.5 18.5
13:00 1017 30.03 847 25.01 5.5 42 39 -7.3 18.9
13:05 1017 30.03 846 24.98 5.6 42.1 39 -7.2 19
13:10 1017 30.03 846 24.98 5.6 42.1 40 -6.9 19.5
13:15 1017 30.03 846 24.98 5.8 42.4 38 -7.4 18.7
13:20 1017 30.03 846 24.98 6.2 43.2 38 -7.2 19.1
13:25 1017 30.03 846 24.98 6.1 43 36 -8 17.6
13:30 1017 30.03 846 24.98 5.4 41.8 38 -7.7 18.1
13:35 1017 30.03 846 24.98 6.4 43.5 35 -8.1 17.4
13:40 1017 30.03 846 24.98 6.2 43.1 37 -7.6 18.4
13:45 1017 30.03 846 24.98 4.5 40 41 -7.8 17.9
13:50 1017 30.03 846 24.98 4.3 39.8 40 -8.1 17.4
13:55 1017 30.03 846 24.98 4.7 40.4 41 -7.4 18.6
14:00 1017 30.03 846 24.98 4.7 40.4 42 -7.3 18.8
14:05 1017 30.03 846 24.98 4.8 40.6 40 -7.7 18.1
14:10 1017 30.03 846 24.98 4.8 40.6 43 -6.8 19.8
14:15 1017 30.03 846 24.98 4.4 40 45 -6.6 20.2
14:20 1016 30 846 24.98 4.6 40.2 44 -6.6 20.1
14:25 1016 30 846 24.98 5.1 41.2 42 -6.6 20
14:30 1016 30 846 24.98 5.1 41.2 42 -6.7 19.9
14:35 1016 30 846 24.98 5.4 41.7 40 -7.1 19.3
14:40 1016 30 846 24.98 5.7 42.3 42 -6.1 20.9
14:45 1016 30 845 24.95 5.9 42.6 41 -6.3 20.6
14:50 1016 30 846 24.98 5.4 41.8 42 -6.6 20.1
14:55 1016 30 845 24.95 5.7 42.2 42 -6.2 20.9
15:00 1016 30 845 24.95 5.7 42.3 41 -6.5 20.4
15:05 1016 30 845 24.95 5.7 42.2 42 -6.4 20.5
15:10 1016 30 845 24.95 5.3 41.5 43 -6.3 20.7
15:15 1016 30 845 24.95 5.2 41.3 44 -6.2 20.9
15:20 1016 30 845 24.95 5.2 41.4 44 -6 21.1
15:25 1016 30 845 24.95 4.6 40.2 48 -5.6 21.9
15:30 1016 30 845 24.95 4 39.2 50 -5.6 21.9
15:35 1016 30 845 24.95 3.7 38.7 50 -5.7 21.7
15:40 1016 30 845 24.95 3.7 38.7 49 -6.1 21.1
15:45 1016 30 845 24.95 3.8 38.9 49 -5.8 21.5
15:50 1016 30 845 24.95 3.7 38.7 50 -5.7 21.7
15:55 1016 30 845 24.95 3.5 38.2 52 -5.6 21.9
16:00 1016 30 845 24.95 3.3 37.9 52 -5.7 21.7
16:05 1016 30 845 24.95 3.1 37.6 53 -5.6 21.9
16:10 1015 29.97 845 24.95 3.2 37.7 52 -5.8 21.6
16:15 1015 29.97 845 24.95 3.1 37.6 52 -5.9 21.4
16:20 1015 29.97 845 24.95 3.1 37.5 52 -6 21.3
16:25 1015 29.97 845 24.95 3.1 37.6 52 -5.9 21.3
16:30 1015 29.97 845 24.95 3 37.4 52 -5.8 21.5
16:35 1015 29.97 845 24.95 2.8 37 53 -5.9 21.3
16:40 1015 29.97 845 24.95 2.7 36.8 53 -5.9 21.4
16:45 1015 29.97 845 24.95 2.4 36.2 55 -5.7 21.7
16:50 1015 29.97 845 24.95 2.2 35.9 55 -6 21.2
16:55 1015 29.97 845 24.95 2.2 36 54 -6.3 20.7
17:00 1015 29.97 845 24.95 2.4 36.4 53 -6.1 21
17:05 1015 29.97 845 24.95 2.4 36.4 53 -6.2 20.9
17:10 1015 29.97 845 24.95 2.3 36.2 54 -6 21.3
17:15 1015 29.97 845 24.95 2.2 35.9 54 -6.1 21.1
17:20 1015 29.97 845 24.95 2.3 36.2 52 -6.5 20.3
17:25 1015 29.97 845 24.95 2.2 35.9 55 -6 21.2
17:30 1015 29.97 845 24.95 1.7 35.1 56 -6.1 21.1
17:35 1015 29.97 844 24.92 1.7 35 57 -6 21.1
17:40 1015 29.97 845 24.95 1.5 34.7 56 -6.3 20.7
17:45 1015 29.97 845 24.95 1.4 34.5 56 -6.4 20.5
17:50 1016 30 845 24.95 1.3 34.3 56 -6.5 20.3
17:55 1016 30 845 24.95 1.2 34.1 56 -6.7 20
18:00 1015 29.97 845 24.95 1.1 34 56 -6.6 20.1
18:05 1015 29.97 845 24.95 1 33.8 56 -6.9 19.6
18:10 1015 29.97 845 24.95 0.9 33.7 57 -6.6 20.2
18:15 1015 29.97 845 24.95 0.7 33.2 58 -6.6 20
18:20 1015 29.97 844 24.92 0.6 33 58 -6.7 20
18:25 1015 29.97 845 24.95 0.7 33.2 59 -6.5 20.2
18:30 1015 29.97 845 24.95 0.7 33.2 58 -6.6 20.2
18:35 1015 29.97 845 24.95 0.6 33.1 59 -6.5 20.3
18:40 1015 29.97 845 24.95 0.6 33 59 -6.5 20.3
18:45 1016 30 845 24.95 0.4 32.7 61 -6.3 20.6
18:50 1016 30 845 24.95 0.2 32.4 61 -6.5 20.4
18:55 1016 30 845 24.95 0.3 32.6 60 -6.5 20.2
19:00 1016 30 845 24.95 0.4 32.8 60 -6.5 20.2
19:05 1016 30 845 24.95 0.3 32.6 60 -6.4 20.4
19:10 1016 30 845 24.95 0.2 32.4 60 -6.6 20.2
19:15 1016 30 845 24.95 0.3 32.6 61 -6.4 20.5
19:20 1016 30 845 24.95 0.2 32.4 61 -6.5 20.4
19:25 1016 30 845 24.95 0.2 32.3 61 -6.4 20.5
19:30 1016 30 845 24.95 0.2 32.4 61 -6.5 20.3
19:35 1016 30 845 24.95 0 32.1 62 -6.4 20.5
19:40 1016 30 845 24.95 -0.1 31.9 61 -6.6 20.1
19:45 1016 30 845 24.95 0 32.1 61 -6.5 20.2
19:50 1016 30 845 24.95 0 32.1 61 -6.6 20.1
19:55 1016 30 845 24.95 0.1 32.2 61 -6.5 20.3
20:00 1016 30 845 24.95 -0 32 61 -6.6 20.1
20:05 1016 30 845 24.95 0.1 32.2 61 -6.6 20.2
20:10 1016 30 845 24.95 -0.1 31.8 62 -6.5 20.3
20:15 1016 30 845 24.95 -0.3 31.5 63 -6.5 20.3
20:20 1016 30 845 24.95 -0.4 31.3 63 -6.6 20.1
20:25 1016 30 845 24.95 -0.4 31.3 64 -6.5 20.3
20:30 1016 30 845 24.95 -0.5 31 64 -6.4 20.4
20:35 1016 30 845 24.95 -0.6 30.9 65 -6.4 20.4
20:40 1015 29.97 845 24.95 -0.7 30.7 65 -6.4 20.4
20:45 1016 30 845 24.95 -0.8 30.6 66 -6.4 20.5
20:50 1016 30 845 24.95 -0.8 30.5 66 -6.5 20.3
20:55 1016 30 845 24.95 -0.9 30.3 66 -6.5 20.3
21:00 1016 30 845 24.95 -1 30.2 66 -6.7 20
21:05 1016 30 845 24.95 -1.1 30 67 -6.5 20.2
21:10 1015 29.97 845 24.95 -1.2 29.9 67 -6.6 20.1
21:15 1016 30 845 24.95 -1.3 29.7 67 -6.6 20.1
21:20 1016 30 845 24.95 -1.5 29.4 68 -6.6 20.1
21:25 1016 30 845 24.95 -1.6 29.2 68 -6.6 20.1
21:30 1016 30 845 24.95 -1.6 29.2 68 -6.7 19.9
21:35 1015 29.97 845 24.95 -1.6 29.2 68 -6.7 20
21:40 1016 30 845 24.95 -1.7 29 69 -6.7 20
21:45 1016 30 845 24.95 -1.8 28.7 70 -6.7 20
21:50 1016 30 845 24.95 -2 28.4 70 -6.8 19.8
21:55 1016 30 845 24.95 -2.2 28.1 71 -6.8 19.8
22:00 1016 30 845 24.95 -2 28.4 70 -6.7 19.9
22:05 1016 30 845 24.95 -2.1 28.2 71 -6.8 19.8
22:10 1016 30 845 24.95 -2.1 28.1 71 -6.8 19.8
22:15 1016 30 845 24.95 -2.2 28.1 71 -6.7 19.9
22:20 1016 30 845 24.95 -2.3 27.8 72 -6.8 19.8
22:25 1016 30 845 24.95 -2.4 27.6 72 -6.8 19.7
22:30 1015 29.97 845 24.95 -2.4 27.7 72 -6.9 19.6
22:35 1016 30 845 24.95 -2.4 27.7 72 -6.9 19.6
22:40 1015 29.97 845 24.95 -2.5 27.5 72 -6.9 19.6
22:45 1015 29.97 845 24.95 -2.5 27.5 72 -6.8 19.7
22:50 1015 29.97 845 24.95 -2.6 27.3 72 -7 19.5
22:55 1015 29.97 845 24.95 -2.6 27.3 73 -6.9 19.6
23:00 1015 29.97 845 24.95 -2.8 27 73 -7 19.4
23:05 1015 29.97 844 24.92 -2.7 27.1 73 -7 19.4
23:10 1015 29.97 844 24.92 -2.8 27 73 -6.9 19.5
23:15 1015 29.97 844 24.92 -2.8 26.9 73 -7 19.4
23:20 1015 29.97 844 24.92 -2.8 27 73 -6.9 19.6
23:25 1015 29.97 844 24.92 -2.7 27.2 73 -6.9 19.5
23:30 1015 29.97 844 24.92 -2.6 27.3 72 -7 19.4
23:35 1015 29.97 844 24.92 -2.6 27.4 72 -6.9 19.6
23:40 1015 29.97 844 24.92 -2.6 27.4 72 -6.9 19.6
23:45 1015 29.97 844 24.92 -2.5 27.5 72 -6.9 19.5
23:50 1015 29.97 844 24.92 -2.4 27.7 71 -6.9 19.6
23:55 1015 29.97 844 24.92 -2.3 27.9 70 -7 19.4
24:00 1015 29.97 844 24.92 -2.3 27.9 71 -6.8 19.7